sensor_id;sensor_type;location;lat;lon;timestamp;P1;durP1;ratioP1;P2;durP2;ratioP2
14100;SDS011;7127;49.372;8.166;2023-08-21T00:00:48;2.30;;;2.10;;
14100;SDS011;7127;49.372;8.166;2023-08-21T00:03:15;2.38;;;2.17;;
14100;SDS011;7127;49.372;8.166;2023-08-21T00:05:42;3.35;;;2.10;;
14100;SDS011;7127;49.372;8.166;2023-08-21T00:08:08;2.58;;;2.30;;
14100;SDS011;7127;49.372;8.166;2023-08-21T00:10:36;2.35;;;2.15;;
14100;SDS011;7127;49.372;8.166;2023-08-21T00:13:05;2.55;;;2.30;;
14100;SDS011;7127;49.372;8.166;2023-08-21T00:15:32;2.20;;;2.00;;
14100;SDS011;7127;49.372;8.166;2023-08-21T00:17:59;3.88;;;2.20;;
14100;SDS011;7127;49.372;8.166;2023-08-21T00:20:26;2.47;;;2.25;;
14100;SDS011;7127;49.372;8.166;2023-08-21T00:22:53;2.55;;;2.33;;
14100;SDS011;7127;49.372;8.166;2023-08-21T00:25:20;2.65;;;1.92;;
14100;SDS011;7127;49.372;8.166;2023-08-21T00:27:48;2.45;;;2.17;;
14100;SDS011;7127;49.372;8.166;2023-08-21T00:30:16;2.20;;;2.00;;
14100;SDS011;7127;49.372;8.166;2023-08-21T00:32:43;2.65;;;2.45;;
14100;SDS011;7127;49.372;8.166;2023-08-21T00:35:10;2.53;;;2.13;;
14100;SDS011;7127;49.372;8.166;2023-08-21T00:37:37;2.95;;;2.65;;
14100;SDS011;7127;49.372;8.166;2023-08-21T00:40:04;2.30;;;2.10;;
14100;SDS011;7127;49.372;8.166;2023-08-21T00:42:31;2.30;;;2.00;;
14100;SDS011;7127;49.372;8.166;2023-08-21T00:44:58;2.45;;;2.17;;
14100;SDS011;7127;49.372;8.166;2023-08-21T00:47:26;2.20;;;2.00;;
14100;SDS011;7127;49.372;8.166;2023-08-21T00:49:53;2.83;;;2.60;;
14100;SDS011;7127;49.372;8.166;2023-08-21T00:52:21;2.63;;;2.30;;
14100;SDS011;7127;49.372;8.166;2023-08-21T00:54:48;2.70;;;2.30;;
14100;SDS011;7127;49.372;8.166;2023-08-21T00:57:16;2.63;;;2.42;;
14100;SDS011;7127;49.372;8.166;2023-08-21T00:59:43;2.28;;;2.08;;
14100;SDS011;7127;49.372;8.166;2023-08-21T01:02:10;2.40;;;2.20;;
14100;SDS011;7127;49.372;8.166;2023-08-21T01:04:39;2.33;;;2.13;;
14100;SDS011;7127;49.372;8.166;2023-08-21T01:07:06;2.30;;;2.10;;
14100;SDS011;7127;49.372;8.166;2023-08-21T01:09:36;2.55;;;2.28;;
14100;SDS011;7127;49.372;8.166;2023-08-21T01:12:09;2.38;;;2.17;;
14100;SDS011;7127;49.372;8.166;2023-08-21T01:14:46;2.40;;;2.20;;
14100;SDS011;7127;49.372;8.166;2023-08-21T01:17:18;2.72;;;2.47;;
14100;SDS011;7127;49.372;8.166;2023-08-21T01:19:49;2.30;;;2.10;;
14100;SDS011;7127;49.372;8.166;2023-08-21T01:22:18;2.30;;;2.10;;
14100;SDS011;7127;49.372;8.166;2023-08-21T01:24:46;2.53;;;2.33;;
14100;SDS011;7127;49.372;8.166;2023-08-21T01:27:13;3.08;;;2.00;;
14100;SDS011;7127;49.372;8.166;2023-08-21T01:29:40;3.85;;;2.50;;
14100;SDS011;7127;49.372;8.166;2023-08-21T01:32:09;2.90;;;2.40;;
14100;SDS011;7127;49.372;8.166;2023-08-21T01:34:42;2.70;;;2.38;;
14100;SDS011;7127;49.372;8.166;2023-08-21T01:37:10;2.40;;;2.20;;
14100;SDS011;7127;49.372;8.166;2023-08-21T01:39:37;2.40;;;2.17;;
14100;SDS011;7127;49.372;8.166;2023-08-21T01:42:05;2.75;;;2.10;;
14100;SDS011;7127;49.372;8.166;2023-08-21T01:44:32;2.30;;;2.10;;
14100;SDS011;7127;49.372;8.166;2023-08-21T01:46:59;2.53;;;2.20;;
14100;SDS011;7127;49.372;8.166;2023-08-21T01:49:26;2.38;;;2.17;;
14100;SDS011;7127;49.372;8.166;2023-08-21T01:51:53;2.97;;;2.30;;
14100;SDS011;7127;49.372;8.166;2023-08-21T01:54:19;2.40;;;2.20;;
14100;SDS011;7127;49.372;8.166;2023-08-21T01:56:46;2.38;;;2.10;;
14100;SDS011;7127;49.372;8.166;2023-08-21T01:59:15;3.13;;;2.42;;
14100;SDS011;7127;49.372;8.166;2023-08-21T02:01:42;3.42;;;2.17;;
14100;SDS011;7127;49.372;8.166;2023-08-21T02:04:10;2.67;;;2.28;;
14100;SDS011;7127;49.372;8.166;2023-08-21T02:06:37;4.18;;;2.20;;
14100;SDS011;7127;49.372;8.166;2023-08-21T02:09:03;2.60;;;2.40;;
14100;SDS011;7127;49.372;8.166;2023-08-21T02:11:30;2.35;;;2.15;;
14100;SDS011;7127;49.372;8.166;2023-08-21T02:13:57;2.67;;;2.40;;
14100;SDS011;7127;49.372;8.166;2023-08-21T02:16:25;2.78;;;2.58;;
14100;SDS011;7127;49.372;8.166;2023-08-21T02:18:52;5.13;;;2.60;;
14100;SDS011;7127;49.372;8.166;2023-08-21T02:21:19;2.60;;;2.40;;
14100;SDS011;7127;49.372;8.166;2023-08-21T02:23:46;2.60;;;2.40;;
14100;SDS011;7127;49.372;8.166;2023-08-21T02:26:13;2.50;;;2.30;;
14100;SDS011;7127;49.372;8.166;2023-08-21T02:28:40;2.40;;;2.20;;
14100;SDS011;7127;49.372;8.166;2023-08-21T02:31:08;3.90;;;2.50;;
14100;SDS011;7127;49.372;8.166;2023-08-21T02:33:37;2.60;;;2.40;;
14100;SDS011;7127;49.372;8.166;2023-08-21T02:36:04;2.67;;;2.35;;
14100;SDS011;7127;49.372;8.166;2023-08-21T02:38:32;3.80;;;2.25;;
14100;SDS011;7127;49.372;8.166;2023-08-21T02:40:59;2.92;;;2.40;;
14100;SDS011;7127;49.372;8.166;2023-08-21T02:43:26;2.70;;;2.35;;
14100;SDS011;7127;49.372;8.166;2023-08-21T02:45:52;2.92;;;2.40;;
14100;SDS011;7127;49.372;8.166;2023-08-21T02:48:19;2.67;;;2.47;;
14100;SDS011;7127;49.372;8.166;2023-08-21T02:50:47;2.60;;;2.40;;
14100;SDS011;7127;49.372;8.166;2023-08-21T02:53:14;2.50;;;2.30;;
14100;SDS011;7127;49.372;8.166;2023-08-21T02:55:41;2.45;;;2.22;;
14100;SDS011;7127;49.372;8.166;2023-08-21T02:58:08;2.75;;;2.35;;
14100;SDS011;7127;49.372;8.166;2023-08-21T03:00:35;2.88;;;2.40;;
14100;SDS011;7127;49.372;8.166;2023-08-21T03:03:02;3.28;;;2.72;;
14100;SDS011;7127;49.372;8.166;2023-08-21T03:05:30;3.88;;;2.45;;
14100;SDS011;7127;49.372;8.166;2023-08-21T03:07:58;2.50;;;2.30;;
14100;SDS011;7127;49.372;8.166;2023-08-21T03:10:25;2.70;;;2.50;;
14100;SDS011;7127;49.372;8.166;2023-08-21T03:12:53;2.58;;;2.28;;
14100;SDS011;7127;49.372;8.166;2023-08-21T03:15:21;3.67;;;2.20;;
14100;SDS011;7127;49.372;8.166;2023-08-21T03:17:48;3.53;;;2.45;;
14100;SDS011;7127;49.372;8.166;2023-08-21T03:20:15;2.60;;;2.40;;
14100;SDS011;7127;49.372;8.166;2023-08-21T03:22:42;2.67;;;2.47;;
14100;SDS011;7127;49.372;8.166;2023-08-21T03:25:11;3.10;;;2.80;;
14100;SDS011;7127;49.372;8.166;2023-08-21T03:27:38;4.22;;;2.35;;
14100;SDS011;7127;49.372;8.166;2023-08-21T03:30:09;2.45;;;2.25;;
14100;SDS011;7127;49.372;8.166;2023-08-21T03:32:39;3.10;;;2.72;;
14100;SDS011;7127;49.372;8.166;2023-08-21T03:35:06;3.00;;;2.70;;
14100;SDS011;7127;49.372;8.166;2023-08-21T03:37:33;2.72;;;2.45;;
14100;SDS011;7127;49.372;8.166;2023-08-21T03:40:01;2.80;;;2.60;;
14100;SDS011;7127;49.372;8.166;2023-08-21T03:42:30;3.00;;;2.70;;
14100;SDS011;7127;49.372;8.166;2023-08-21T03:44:57;2.72;;;2.53;;
14100;SDS011;7127;49.372;8.166;2023-08-21T03:47:24;3.75;;;2.65;;
14100;SDS011;7127;49.372;8.166;2023-08-21T03:49:50;3.78;;;2.53;;
14100;SDS011;7127;49.372;8.166;2023-08-21T03:52:17;3.20;;;2.90;;
14100;SDS011;7127;49.372;8.166;2023-08-21T03:54:44;3.80;;;2.50;;
14100;SDS011;7127;49.372;8.166;2023-08-21T03:57:11;3.72;;;2.65;;
14100;SDS011;7127;49.372;8.166;2023-08-21T03:59:39;4.22;;;2.78;;
14100;SDS011;7127;49.372;8.166;2023-08-21T04:02:06;4.03;;;3.33;;
14100;SDS011;7127;49.372;8.166;2023-08-21T04:04:34;2.72;;;2.53;;
14100;SDS011;7127;49.372;8.166;2023-08-21T04:07:00;2.63;;;2.35;;
14100;SDS011;7127;49.372;8.166;2023-08-21T04:09:27;4.53;;;2.65;;
14100;SDS011;7127;49.372;8.166;2023-08-21T04:11:54;3.03;;;2.72;;
14100;SDS011;7127;49.372;8.166;2023-08-21T04:14:21;3.38;;;2.75;;
14100;SDS011;7127;49.372;8.166;2023-08-21T04:16:49;2.85;;;2.65;;
14100;SDS011;7127;49.372;8.166;2023-08-21T04:19:16;3.08;;;2.78;;
14100;SDS011;7127;49.372;8.166;2023-08-21T04:21:43;2.90;;;2.60;;
14100;SDS011;7127;49.372;8.166;2023-08-21T04:24:10;3.03;;;2.75;;
14100;SDS011;7127;49.372;8.166;2023-08-21T04:26:36;3.10;;;2.83;;
14100;SDS011;7127;49.372;8.166;2023-08-21T04:29:03;3.00;;;2.70;;
14100;SDS011;7127;49.372;8.166;2023-08-21T04:31:30;3.28;;;2.97;;
14100;SDS011;7127;49.372;8.166;2023-08-21T04:33:58;3.55;;;2.50;;
14100;SDS011;7127;49.372;8.166;2023-08-21T04:36:25;3.70;;;2.60;;
14100;SDS011;7127;49.372;8.166;2023-08-21T04:38:52;5.22;;;2.88;;
14100;SDS011;7127;49.372;8.166;2023-08-21T04:41:18;2.88;;;2.67;;
14100;SDS011;7127;49.372;8.166;2023-08-21T04:43:45;3.00;;;2.67;;
14100;SDS011;7127;49.372;8.166;2023-08-21T04:46:12;2.80;;;2.42;;
14100;SDS011;7127;49.372;8.166;2023-08-21T04:48:39;2.70;;;2.50;;
14100;SDS011;7127;49.372;8.166;2023-08-21T04:51:07;4.45;;;2.70;;
14100;SDS011;7127;49.372;8.166;2023-08-21T04:53:34;2.80;;;2.60;;
14100;SDS011;7127;49.372;8.166;2023-08-21T04:56:01;3.10;;;2.58;;
14100;SDS011;7127;49.372;8.166;2023-08-21T04:58:28;3.13;;;2.60;;
14100;SDS011;7127;49.372;8.166;2023-08-21T05:00:55;2.85;;;2.65;;
14100;SDS011;7127;49.372;8.166;2023-08-21T05:03:22;3.13;;;2.83;;
14100;SDS011;7127;49.372;8.166;2023-08-21T05:05:52;3.28;;;2.97;;
14100;SDS011;7127;49.372;8.166;2023-08-21T05:08:21;2.88;;;2.58;;
14100;SDS011;7127;49.372;8.166;2023-08-21T05:10:53;2.63;;;2.42;;
14100;SDS011;7127;49.372;8.166;2023-08-21T05:13:20;2.60;;;2.40;;
14100;SDS011;7127;49.372;8.166;2023-08-21T05:15:50;3.40;;;2.53;;
14100;SDS011;7127;49.372;8.166;2023-08-21T05:18:17;2.80;;;2.42;;
14100;SDS011;7127;49.372;8.166;2023-08-21T05:20:44;3.42;;;2.47;;
14100;SDS011;7127;49.372;8.166;2023-08-21T05:23:11;2.78;;;2.50;;
14100;SDS011;7127;49.372;8.166;2023-08-21T05:25:39;3.33;;;2.67;;
14100;SDS011;7127;49.372;8.166;2023-08-21T05:28:06;6.30;;;2.55;;
14100;SDS011;7127;49.372;8.166;2023-08-21T05:30:35;2.85;;;2.65;;
14100;SDS011;7127;49.372;8.166;2023-08-21T05:33:01;3.20;;;2.70;;
14100;SDS011;7127;49.372;8.166;2023-08-21T05:35:29;2.90;;;2.70;;
14100;SDS011;7127;49.372;8.166;2023-08-21T05:37:58;5.13;;;2.88;;
14100;SDS011;7127;49.372;8.166;2023-08-21T05:40:25;3.08;;;2.72;;
14100;SDS011;7127;49.372;8.166;2023-08-21T05:42:53;3.17;;;2.92;;
14100;SDS011;7127;49.372;8.166;2023-08-21T05:45:20;4.72;;;3.47;;
14100;SDS011;7127;49.372;8.166;2023-08-21T05:47:47;3.33;;;3.03;;
14100;SDS011;7127;49.372;8.166;2023-08-21T05:50:14;3.47;;;3.17;;
14100;SDS011;7127;49.372;8.166;2023-08-21T05:52:41;3.28;;;2.97;;
14100;SDS011;7127;49.372;8.166;2023-08-21T05:55:08;3.10;;;2.80;;
14100;SDS011;7127;49.372;8.166;2023-08-21T05:57:35;2.78;;;2.58;;
14100;SDS011;7127;49.372;8.166;2023-08-21T06:00:05;3.65;;;3.35;;
14100;SDS011;7127;49.372;8.166;2023-08-21T06:02:34;3.30;;;3.00;;
14100;SDS011;7127;49.372;8.166;2023-08-21T06:05:01;3.80;;;3.50;;
14100;SDS011;7127;49.372;8.166;2023-08-21T06:07:28;3.88;;;3.50;;
14100;SDS011;7127;49.372;8.166;2023-08-21T06:09:55;4.05;;;3.75;;
14100;SDS011;7127;49.372;8.166;2023-08-21T06:12:21;3.83;;;3.53;;
14100;SDS011;7127;49.372;8.166;2023-08-21T06:14:48;3.63;;;3.33;;
14100;SDS011;7127;49.372;8.166;2023-08-21T06:17:16;3.80;;;3.50;;
14100;SDS011;7127;49.372;8.166;2023-08-21T06:19:43;4.13;;;3.42;;
14100;SDS011;7127;49.372;8.166;2023-08-21T06:22:10;3.65;;;3.35;;
14100;SDS011;7127;49.372;8.166;2023-08-21T06:24:37;5.05;;;3.45;;
14100;SDS011;7127;49.372;8.166;2023-08-21T06:27:04;3.20;;;2.90;;
14100;SDS011;7127;49.372;8.166;2023-08-21T06:29:31;4.40;;;4.00;;
14100;SDS011;7127;49.372;8.166;2023-08-21T06:31:58;3.70;;;3.40;;
14100;SDS011;7127;49.372;8.166;2023-08-21T06:34:26;3.50;;;3.20;;
14100;SDS011;7127;49.372;8.166;2023-08-21T06:36:53;3.40;;;3.10;;
14100;SDS011;7127;49.372;8.166;2023-08-21T06:39:20;4.30;;;3.90;;
14100;SDS011;7127;49.372;8.166;2023-08-21T06:41:46;3.17;;;2.97;;
14100;SDS011;7127;49.372;8.166;2023-08-21T06:44:14;3.80;;;3.35;;
14100;SDS011;7127;49.372;8.166;2023-08-21T06:46:40;3.92;;;3.53;;
14100;SDS011;7127;49.372;8.166;2023-08-21T06:49:08;3.95;;;3.65;;
14100;SDS011;7127;49.372;8.166;2023-08-21T06:51:36;3.75;;;3.40;;
14100;SDS011;7127;49.372;8.166;2023-08-21T06:54:03;3.25;;;2.95;;
14100;SDS011;7127;49.372;8.166;2023-08-21T06:56:30;3.90;;;3.60;;
14100;SDS011;7127;49.372;8.166;2023-08-21T06:58:57;4.32;;;3.90;;
14100;SDS011;7127;49.372;8.166;2023-08-21T07:01:24;3.65;;;3.35;;
14100;SDS011;7127;49.372;8.166;2023-08-21T07:03:50;3.67;;;3.38;;
14100;SDS011;7127;49.372;8.166;2023-08-21T07:06:17;3.20;;;2.90;;
14100;SDS011;7127;49.372;8.166;2023-08-21T07:08:46;3.28;;;2.97;;
14100;SDS011;7127;49.372;8.166;2023-08-21T07:11:12;3.35;;;3.05;;
14100;SDS011;7127;49.372;8.166;2023-08-21T07:13:39;3.75;;;3.30;;
14100;SDS011;7127;49.372;8.166;2023-08-21T07:16:06;3.45;;;3.15;;
14100;SDS011;7127;49.372;8.166;2023-08-21T07:18:34;5.28;;;3.75;;
14100;SDS011;7127;49.372;8.166;2023-08-21T07:21:01;3.15;;;2.95;;
14100;SDS011;7127;49.372;8.166;2023-08-21T07:23:29;4.45;;;3.00;;
14100;SDS011;7127;49.372;8.166;2023-08-21T07:25:58;3.13;;;2.83;;
14100;SDS011;7127;49.372;8.166;2023-08-21T07:28:25;3.20;;;2.90;;
14100;SDS011;7127;49.372;8.166;2023-08-21T07:30:55;4.60;;;3.40;;
14100;SDS011;7127;49.372;8.166;2023-08-21T07:33:23;4.05;;;3.65;;
14100;SDS011;7127;49.372;8.166;2023-08-21T07:35:56;3.95;;;3.42;;
14100;SDS011;7127;49.372;8.166;2023-08-21T07:38:23;4.15;;;3.30;;
14100;SDS011;7127;49.372;8.166;2023-08-21T07:40:50;3.28;;;2.95;;
14100;SDS011;7127;49.372;8.166;2023-08-21T07:43:19;2.97;;;2.75;;
14100;SDS011;7127;49.372;8.166;2023-08-21T07:45:46;3.22;;;2.92;;
14100;SDS011;7127;49.372;8.166;2023-08-21T07:48:13;3.47;;;3.17;;
14100;SDS011;7127;49.372;8.166;2023-08-21T07:50:40;3.90;;;2.95;;
14100;SDS011;7127;49.372;8.166;2023-08-21T07:53:07;3.08;;;2.78;;
14100;SDS011;7127;49.372;8.166;2023-08-21T07:55:34;3.50;;;3.20;;
14100;SDS011;7127;49.372;8.166;2023-08-21T07:58:00;3.85;;;2.92;;
14100;SDS011;7127;49.372;8.166;2023-08-21T08:00:30;3.65;;;3.22;;
14100;SDS011;7127;49.372;8.166;2023-08-21T08:02:57;3.40;;;3.10;;
14100;SDS011;7127;49.372;8.166;2023-08-21T08:05:24;3.75;;;3.35;;
14100;SDS011;7127;49.372;8.166;2023-08-21T08:07:51;3.38;;;3.03;;
14100;SDS011;7127;49.372;8.166;2023-08-21T08:10:18;5.53;;;3.17;;
14100;SDS011;7127;49.372;8.166;2023-08-21T08:12:45;4.43;;;3.00;;
14100;SDS011;7127;49.372;8.166;2023-08-21T08:15:12;4.10;;;3.53;;
14100;SDS011;7127;49.372;8.166;2023-08-21T08:17:40;3.40;;;3.10;;
14100;SDS011;7127;49.372;8.166;2023-08-21T08:20:07;4.53;;;3.05;;
14100;SDS011;7127;49.372;8.166;2023-08-21T08:22:35;3.28;;;2.92;;
14100;SDS011;7127;49.372;8.166;2023-08-21T08:25:02;4.10;;;3.35;;
14100;SDS011;7127;49.372;8.166;2023-08-21T08:27:31;3.17;;;2.88;;
14100;SDS011;7127;49.372;8.166;2023-08-21T08:29:58;3.45;;;3.15;;
14100;SDS011;7127;49.372;8.166;2023-08-21T08:32:25;5.75;;;3.33;;
14100;SDS011;7127;49.372;8.166;2023-08-21T08:34:53;3.40;;;3.08;;
14100;SDS011;7127;49.372;8.166;2023-08-21T08:37:20;4.00;;;3.10;;
14100;SDS011;7127;49.372;8.166;2023-08-21T08:39:47;3.25;;;3.00;;
14100;SDS011;7127;49.372;8.166;2023-08-21T08:42:15;5.93;;;2.92;;
14100;SDS011;7127;49.372;8.166;2023-08-21T08:44:42;4.65;;;2.80;;
14100;SDS011;7127;49.372;8.166;2023-08-21T08:47:10;7.13;;;3.45;;
14100;SDS011;7127;49.372;8.166;2023-08-21T08:49:38;6.13;;;3.25;;
14100;SDS011;7127;49.372;8.166;2023-08-21T08:52:06;3.15;;;2.95;;
14100;SDS011;7127;49.372;8.166;2023-08-21T08:54:33;3.33;;;3.03;;
14100;SDS011;7127;49.372;8.166;2023-08-21T08:57:02;3.33;;;3.03;;
14100;SDS011;7127;49.372;8.166;2023-08-21T08:59:29;4.10;;;2.97;;
14100;SDS011;7127;49.372;8.166;2023-08-21T09:01:57;3.35;;;3.10;;
14100;SDS011;7127;49.372;8.166;2023-08-21T09:04:24;3.95;;;3.10;;
14100;SDS011;7127;49.372;8.166;2023-08-21T09:06:51;3.28;;;2.95;;
14100;SDS011;7127;49.372;8.166;2023-08-21T09:09:19;3.60;;;3.30;;
14100;SDS011;7127;49.372;8.166;2023-08-21T09:11:46;3.80;;;2.70;;
14100;SDS011;7127;49.372;8.166;2023-08-21T09:14:14;3.25;;;2.88;;
14100;SDS011;7127;49.372;8.166;2023-08-21T09:16:57;3.28;;;2.88;;
14100;SDS011;7127;49.372;8.166;2023-08-21T09:19:26;3.33;;;3.03;;
14100;SDS011;7127;49.372;8.166;2023-08-21T09:21:52;5.13;;;3.13;;
14100;SDS011;7127;49.372;8.166;2023-08-21T09:24:20;2.90;;;2.70;;
14100;SDS011;7127;49.372;8.166;2023-08-21T09:26:48;2.75;;;2.55;;
14100;SDS011;7127;49.372;8.166;2023-08-21T09:29:15;3.00;;;2.60;;
14100;SDS011;7127;49.372;8.166;2023-08-21T09:31:43;6.18;;;3.10;;
14100;SDS011;7127;49.372;8.166;2023-08-21T09:34:11;2.72;;;2.53;;
14100;SDS011;7127;49.372;8.166;2023-08-21T09:36:38;2.92;;;2.63;;
14100;SDS011;7127;49.372;8.166;2023-08-21T09:39:05;2.42;;;2.22;;
14100;SDS011;7127;49.372;8.166;2023-08-21T09:41:34;2.70;;;2.50;;
14100;SDS011;7127;49.372;8.166;2023-08-21T09:44:00;3.05;;;2.63;;
14100;SDS011;7127;49.372;8.166;2023-08-21T09:46:29;2.40;;;2.20;;
14100;SDS011;7127;49.372;8.166;2023-08-21T09:48:56;2.33;;;2.10;;
14100;SDS011;7127;49.372;8.166;2023-08-21T09:51:23;3.75;;;2.00;;
14100;SDS011;7127;49.372;8.166;2023-08-21T09:53:50;2.60;;;2.40;;
14100;SDS011;7127;49.372;8.166;2023-08-21T09:56:17;3.97;;;2.30;;
14100;SDS011;7127;49.372;8.166;2023-08-21T09:58:46;2.20;;;2.00;;
14100;SDS011;7127;49.372;8.166;2023-08-21T10:01:14;5.53;;;2.50;;
14100;SDS011;7127;49.372;8.166;2023-08-21T10:03:44;2.10;;;1.90;;
14100;SDS011;7127;49.372;8.166;2023-08-21T10:06:12;1.92;;;1.75;;
14100;SDS011;7127;49.372;8.166;2023-08-21T10:08:42;2.58;;;2.10;;
14100;SDS011;7127;49.372;8.166;2023-08-21T10:11:14;1.98;;;1.88;;
14100;SDS011;7127;49.372;8.166;2023-08-21T10:13:47;2.78;;;2.20;;
14100;SDS011;7127;49.372;8.166;2023-08-21T10:16:16;2.35;;;1.73;;
14100;SDS011;7127;49.372;8.166;2023-08-21T10:18:43;1.90;;;1.67;;
14100;SDS011;7127;49.372;8.166;2023-08-21T10:21:12;2.65;;;1.80;;
14100;SDS011;7127;49.372;8.166;2023-08-21T10:23:39;1.85;;;1.75;;
14100;SDS011;7127;49.372;8.166;2023-08-21T10:26:10;2.08;;;1.95;;
14100;SDS011;7127;49.372;8.166;2023-08-21T10:28:49;3.38;;;1.88;;
14100;SDS011;7127;49.372;8.166;2023-08-21T10:31:30;2.03;;;1.80;;
14100;SDS011;7127;49.372;8.166;2023-08-21T10:33:59;1.75;;;1.65;;
14100;SDS011;7127;49.372;8.166;2023-08-21T10:39:32;1.52;;;1.40;;
14100;SDS011;7127;49.372;8.166;2023-08-21T10:42:03;2.28;;;2.00;;
14100;SDS011;7127;49.372;8.166;2023-08-21T10:44:47;1.95;;;1.70;;
14100;SDS011;7127;49.372;8.166;2023-08-21T10:47:18;2.10;;;1.85;;
14100;SDS011;7127;49.372;8.166;2023-08-21T10:49:46;1.92;;;1.63;;
14100;SDS011;7127;49.372;8.166;2023-08-21T10:52:13;1.70;;;1.60;;
14100;SDS011;7127;49.372;8.166;2023-08-21T10:54:45;1.50;;;1.40;;
14100;SDS011;7127;49.372;8.166;2023-08-21T10:57:12;3.55;;;1.80;;
14100;SDS011;7127;49.372;8.166;2023-08-21T10:59:50;1.73;;;1.63;;
14100;SDS011;7127;49.372;8.166;2023-08-21T11:02:18;1.90;;;1.60;;
14100;SDS011;7127;49.372;8.166;2023-08-21T11:04:45;1.75;;;1.40;;
14100;SDS011;7127;49.372;8.166;2023-08-21T11:07:12;1.77;;;1.52;;
14100;SDS011;7127;49.372;8.166;2023-08-21T11:09:38;1.90;;;1.70;;
14100;SDS011;7127;49.372;8.166;2023-08-21T11:12:06;1.70;;;1.60;;
14100;SDS011;7127;49.372;8.166;2023-08-21T11:14:35;1.67;;;1.58;;
14100;SDS011;7127;49.372;8.166;2023-08-21T11:17:03;1.60;;;1.50;;
14100;SDS011;7127;49.372;8.166;2023-08-21T11:19:30;1.80;;;1.70;;
14100;SDS011;7127;49.372;8.166;2023-08-21T11:21:58;2.90;;;1.60;;
14100;SDS011;7127;49.372;8.166;2023-08-21T11:24:38;3.00;;;1.75;;
14100;SDS011;7127;49.372;8.166;2023-08-21T11:27:08;1.45;;;1.35;;
14100;SDS011;7127;49.372;8.166;2023-08-21T11:29:37;2.20;;;1.95;;
14100;SDS011;7127;49.372;8.166;2023-08-21T11:32:08;2.47;;;1.90;;
14100;SDS011;7127;49.372;8.166;2023-08-21T11:34:40;1.80;;;1.70;;
14100;SDS011;7127;49.372;8.166;2023-08-21T11:37:07;1.85;;;1.65;;
14100;SDS011;7127;49.372;8.166;2023-08-21T11:39:38;1.52;;;1.42;;
14100;SDS011;7127;49.372;8.166;2023-08-21T11:42:08;1.77;;;1.67;;
14100;SDS011;7127;49.372;8.166;2023-08-21T11:44:40;1.45;;;1.35;;
14100;SDS011;7127;49.372;8.166;2023-08-21T11:47:09;1.90;;;1.70;;
14100;SDS011;7127;49.372;8.166;2023-08-21T11:49:36;2.05;;;1.77;;
14100;SDS011;7127;49.372;8.166;2023-08-21T11:52:06;2.33;;;1.73;;
14100;SDS011;7127;49.372;8.166;2023-08-21T11:54:33;2.15;;;1.80;;
14100;SDS011;7127;49.372;8.166;2023-08-21T11:57:03;1.63;;;1.52;;
14100;SDS011;7127;49.372;8.166;2023-08-21T11:59:31;1.75;;;1.65;;
14100;SDS011;7127;49.372;8.166;2023-08-21T12:01:58;1.80;;;1.70;;
14100;SDS011;7127;49.372;8.166;2023-08-21T12:04:27;1.60;;;1.48;;
14100;SDS011;7127;49.372;8.166;2023-08-21T12:06:54;1.52;;;1.42;;
14100;SDS011;7127;49.372;8.166;2023-08-21T12:09:20;1.88;;;1.67;;
14100;SDS011;7127;49.372;8.166;2023-08-21T12:11:47;1.90;;;1.65;;
14100;SDS011;7127;49.372;8.166;2023-08-21T12:14:14;2.08;;;1.70;;
14100;SDS011;7127;49.372;8.166;2023-08-21T12:16:42;1.60;;;1.50;;
14100;SDS011;7127;49.372;8.166;2023-08-21T12:19:08;2.20;;;2.00;;
14100;SDS011;7127;49.372;8.166;2023-08-21T12:21:38;1.95;;;1.85;;
14100;SDS011;7127;49.372;8.166;2023-08-21T12:24:05;1.90;;;1.80;;
14100;SDS011;7127;49.372;8.166;2023-08-21T12:26:32;1.92;;;1.80;;
14100;SDS011;7127;49.372;8.166;2023-08-21T12:28:59;1.40;;;1.30;;
14100;SDS011;7127;49.372;8.166;2023-08-21T12:31:27;1.73;;;1.60;;
14100;SDS011;7127;49.372;8.166;2023-08-21T12:33:55;1.63;;;1.52;;
14100;SDS011;7127;49.372;8.166;2023-08-21T12:36:22;2.15;;;1.80;;
14100;SDS011;7127;49.372;8.166;2023-08-21T12:38:50;2.95;;;2.08;;
14100;SDS011;7127;49.372;8.166;2023-08-21T12:41:17;1.70;;;1.60;;
14100;SDS011;7127;49.372;8.166;2023-08-21T12:43:44;1.80;;;1.52;;
14100;SDS011;7127;49.372;8.166;2023-08-21T12:46:11;2.10;;;1.60;;
14100;SDS011;7127;49.372;8.166;2023-08-21T12:48:38;1.63;;;1.52;;
14100;SDS011;7127;49.372;8.166;2023-08-21T12:51:05;1.70;;;1.60;;
14100;SDS011;7127;49.372;8.166;2023-08-21T12:53:32;2.15;;;1.95;;
14100;SDS011;7127;49.372;8.166;2023-08-21T12:56:00;1.80;;;1.60;;
14100;SDS011;7127;49.372;8.166;2023-08-21T12:58:28;2.28;;;1.60;;
14100;SDS011;7127;49.372;8.166;2023-08-21T13:00:55;1.95;;;1.60;;
14100;SDS011;7127;49.372;8.166;2023-08-21T13:03:22;2.45;;;2.13;;
14100;SDS011;7127;49.372;8.166;2023-08-21T13:05:49;2.05;;;1.85;;
14100;SDS011;7127;49.372;8.166;2023-08-21T13:08:16;3.45;;;1.77;;
14100;SDS011;7127;49.372;8.166;2023-08-21T13:10:43;2.17;;;1.80;;
14100;SDS011;7127;49.372;8.166;2023-08-21T13:13:11;1.65;;;1.50;;
14100;SDS011;7127;49.372;8.166;2023-08-21T13:15:38;3.38;;;1.80;;
14100;SDS011;7127;49.372;8.166;2023-08-21T13:18:05;2.08;;;1.80;;
14100;SDS011;7127;49.372;8.166;2023-08-21T13:20:32;3.35;;;1.80;;
14100;SDS011;7127;49.372;8.166;2023-08-21T13:22:59;1.95;;;1.80;;
14100;SDS011;7127;49.372;8.166;2023-08-21T13:25:26;2.53;;;1.83;;
14100;SDS011;7127;49.372;8.166;2023-08-21T13:27:54;2.35;;;1.60;;
14100;SDS011;7127;49.372;8.166;2023-08-21T13:30:22;1.77;;;1.67;;
14100;SDS011;7127;49.372;8.166;2023-08-21T13:32:49;1.77;;;1.60;;
14100;SDS011;7127;49.372;8.166;2023-08-21T13:35:15;1.60;;;1.50;;
14100;SDS011;7127;49.372;8.166;2023-08-21T13:37:44;2.15;;;1.60;;
14100;SDS011;7127;49.372;8.166;2023-08-21T13:40:11;1.67;;;1.58;;
14100;SDS011;7127;49.372;8.166;2023-08-21T13:42:41;2.28;;;2.08;;
14100;SDS011;7127;49.372;8.166;2023-08-21T13:45:10;2.72;;;1.70;;
14100;SDS011;7127;49.372;8.166;2023-08-21T13:47:39;2.03;;;1.48;;
14100;SDS011;7127;49.372;8.166;2023-08-21T13:50:06;2.33;;;1.70;;
14100;SDS011;7127;49.372;8.166;2023-08-21T13:52:35;1.50;;;1.40;;
14100;SDS011;7127;49.372;8.166;2023-08-21T13:55:04;1.90;;;1.77;;
14100;SDS011;7127;49.372;8.166;2023-08-21T13:57:32;2.45;;;1.70;;
14100;SDS011;7127;49.372;8.166;2023-08-21T13:59:59;2.72;;;1.65;;
14100;SDS011;7127;49.372;8.166;2023-08-21T14:02:26;1.63;;;1.50;;
14100;SDS011;7127;49.372;8.166;2023-08-21T14:04:54;2.05;;;1.75;;
14100;SDS011;7127;49.372;8.166;2023-08-21T14:07:21;2.67;;;1.67;;
14100;SDS011;7127;49.372;8.166;2023-08-21T14:09:48;2.20;;;1.67;;
14100;SDS011;7127;49.372;8.166;2023-08-21T14:12:15;1.58;;;1.48;;
14100;SDS011;7127;49.372;8.166;2023-08-21T14:14:42;2.08;;;1.90;;
14100;SDS011;7127;49.372;8.166;2023-08-21T14:17:09;2.10;;;1.80;;
14100;SDS011;7127;49.372;8.166;2023-08-21T14:19:36;1.80;;;1.40;;
14100;SDS011;7127;49.372;8.166;2023-08-21T14:22:04;1.60;;;1.50;;
14100;SDS011;7127;49.372;8.166;2023-08-21T14:24:31;2.33;;;1.63;;
14100;SDS011;7127;49.372;8.166;2023-08-21T14:26:58;2.00;;;1.73;;
14100;SDS011;7127;49.372;8.166;2023-08-21T14:29:25;1.60;;;1.45;;
14100;SDS011;7127;49.372;8.166;2023-08-21T14:31:52;1.30;;;1.20;;
14100;SDS011;7127;49.372;8.166;2023-08-21T14:34:19;1.48;;;1.38;;
14100;SDS011;7127;49.372;8.166;2023-08-21T14:36:46;2.65;;;1.58;;
14100;SDS011;7127;49.372;8.166;2023-08-21T14:39:15;1.90;;;1.58;;
14100;SDS011;7127;49.372;8.166;2023-08-21T14:41:42;1.58;;;1.48;;
14100;SDS011;7127;49.372;8.166;2023-08-21T14:44:09;2.10;;;1.65;;
14100;SDS011;7127;49.372;8.166;2023-08-21T14:46:36;1.83;;;1.58;;
14100;SDS011;7127;49.372;8.166;2023-08-21T14:49:03;1.90;;;1.50;;
14100;SDS011;7127;49.372;8.166;2023-08-21T14:51:30;1.90;;;1.80;;
14100;SDS011;7127;49.372;8.166;2023-08-21T14:53:57;2.55;;;1.75;;
14100;SDS011;7127;49.372;8.166;2023-08-21T14:56:25;3.85;;;1.80;;
14100;SDS011;7127;49.372;8.166;2023-08-21T14:58:51;1.88;;;1.77;;
14100;SDS011;7127;49.372;8.166;2023-08-21T15:01:18;1.50;;;1.40;;
14100;SDS011;7127;49.372;8.166;2023-08-21T15:03:45;1.95;;;1.75;;
14100;SDS011;7127;49.372;8.166;2023-08-21T15:06:12;1.50;;;1.40;;